createdAt,value
2017-08-09T00:00:35.251Z,48.73
2017-08-09T00:03:01.887Z,48.27
2017-08-09T00:05:28.519Z,50.10
2017-08-09T00:07:55.527Z,48.87
2017-08-09T00:10:22.170Z,49.57
2017-08-09T00:12:48.799Z,51.23
2017-08-09T00:15:15.447Z,48.53
2017-08-09T00:17:42.066Z,47.20
2017-08-09T00:20:08.678Z,51.07
2017-08-09T00:22:35.330Z,50.97
2017-08-09T00:25:01.944Z,49.47
2017-08-09T00:27:28.584Z,45.40
2017-08-09T00:29:57.497Z,50.30
2017-08-09T00:32:24.139Z,50.53
2017-08-09T00:34:51.031Z,50.67
2017-08-09T00:37:17.661Z,56.77
2017-08-09T00:39:44.283Z,50.90
2017-08-09T00:42:10.927Z,51.00
2017-08-09T00:44:37.563Z,52.60
2017-08-09T00:47:04.216Z,51.40
2017-08-09T00:49:30.851Z,57.00
2017-08-09T00:51:57.777Z,51.27
2017-08-09T00:54:24.409Z,51.90
2017-08-09T00:56:51.066Z,50.90
2017-08-09T00:59:17.680Z,51.00
2017-08-09T01:01:44.911Z,50.77
2017-08-09T01:04:11.847Z,50.00
2017-08-09T01:06:38.488Z,50.97
2017-08-09T01:09:05.149Z,46.97
2017-08-09T01:11:31.788Z,51.77
2017-08-09T01:13:58.400Z,48.17
2017-08-09T01:16:26.282Z,45.33
2017-08-09T01:18:52.948Z,43.10
2017-08-09T01:21:19.580Z,44.07
2017-08-09T01:23:47.012Z,40.03
2017-08-09T01:26:13.687Z,39.47
2017-08-09T01:28:40.326Z,38.27
2017-08-09T01:31:06.988Z,34.50
2017-08-09T01:33:33.630Z,32.30
2017-08-09T01:36:00.239Z,32.97
2017-08-09T01:38:27.850Z,26.70
2017-08-09T01:40:54.470Z,27.23
2017-08-09T01:43:21.103Z,23.80
2017-08-09T01:45:47.738Z,22.13
2017-08-09T01:48:14.368Z,25.20
2017-08-09T01:50:40.973Z,23.40
2017-08-09T01:53:07.611Z,21.53
2017-08-09T01:55:34.227Z,21.83
2017-08-09T01:58:00.884Z,20.27
2017-08-09T02:00:27.515Z,21.50
2017-08-09T02:02:54.148Z,19.53
2017-08-09T02:05:20.758Z,18.70
2017-08-09T02:07:47.395Z,16.47
2017-08-09T02:10:14.039Z,16.63
2017-08-09T02:12:40.676Z,16.97
2017-08-09T02:15:07.314Z,16.20
2017-08-09T02:17:33.939Z,15.63
2017-08-09T02:20:00.568Z,17.40
2017-08-09T02:22:27.203Z,16.63
2017-08-09T02:24:54.063Z,15.50
2017-08-09T02:27:20.755Z,15.70
2017-08-09T02:29:47.376Z,16.23
2017-08-09T02:32:14.016Z,16.13
2017-08-09T02:34:40.655Z,14.70
2017-08-09T02:37:07.275Z,17.37
2017-08-09T02:39:33.915Z,14.13
2017-08-09T02:42:00.531Z,15.20
2017-08-09T02:44:27.191Z,15.30
2017-08-09T02:46:53.824Z,14.50
2017-08-09T02:49:20.463Z,12.30
2017-08-09T02:51:47.080Z,13.40
2017-08-09T02:54:13.727Z,13.67
2017-08-09T02:56:40.502Z,12.60
2017-08-09T02:59:07.122Z,14.27
2017-08-09T03:01:33.750Z,12.43
2017-08-09T03:04:00.389Z,12.40
2017-08-09T03:06:27.019Z,12.13
2017-08-09T03:08:53.674Z,11.13
2017-08-09T03:11:20.298Z,11.40
2017-08-09T03:13:46.903Z,10.70
2017-08-09T03:16:13.885Z,10.37
2017-08-09T03:18:40.499Z,11.63
2017-08-09T03:21:07.114Z,9.40
2017-08-09T03:23:33.743Z,10.43
2017-08-09T03:26:00.372Z,10.57
2017-08-09T03:28:27.000Z,11.37
2017-08-09T03:30:53.639Z,10.80
2017-08-09T03:33:20.283Z,9.70
2017-08-09T03:35:46.921Z,10.53
2017-08-09T03:38:13.571Z,9.67
2017-08-09T03:40:40.199Z,10.77
2017-08-09T03:43:06.805Z,10.90
2017-08-09T03:45:33.447Z,11.90
2017-08-09T03:48:00.359Z,12.47
2017-08-09T03:50:27.007Z,11.30
2017-08-09T03:52:53.672Z,10.67
2017-08-09T03:55:20.319Z,11.20
2017-08-09T03:57:46.944Z,12.50
2017-08-09T04:00:13.580Z,11.83
2017-08-09T04:02:40.259Z,12.00
2017-08-09T04:05:06.897Z,13.67
2017-08-09T04:07:33.532Z,11.70
2017-08-09T04:10:00.166Z,12.47
2017-08-09T04:12:26.783Z,13.17
2017-08-09T04:14:53.447Z,13.93
2017-08-09T04:17:20.108Z,14.60
2017-08-09T04:19:46.762Z,14.60
2017-08-09T04:22:13.386Z,16.10
2017-08-09T04:24:40.033Z,15.80
2017-08-09T04:27:06.660Z,17.07
2017-08-09T04:29:33.290Z,17.47
2017-08-09T04:31:59.926Z,17.83
2017-08-09T04:34:26.548Z,17.93
2017-08-09T04:36:53.182Z,18.47
2017-08-09T04:39:19.794Z,20.10
2017-08-09T04:41:46.437Z,18.37
2017-08-09T04:44:13.063Z,16.70
2017-08-09T04:46:39.672Z,16.33
2017-08-09T04:49:06.311Z,15.53
2017-08-09T04:51:32.926Z,16.23
2017-08-09T04:53:59.567Z,15.70
2017-08-09T04:56:26.226Z,14.97
2017-08-09T04:58:52.836Z,17.03
2017-08-09T05:01:19.498Z,13.03
2017-08-09T05:03:46.108Z,13.67
2017-08-09T05:06:12.732Z,14.97
2017-08-09T05:08:39.388Z,14.17
2017-08-09T05:11:06.019Z,13.97
2017-08-09T05:13:32.662Z,14.30
2017-08-09T05:15:59.288Z,13.20
2017-08-09T05:18:25.936Z,14.63
2017-08-09T05:20:52.595Z,13.73
2017-08-09T05:23:19.269Z,13.60
2017-08-09T05:25:45.927Z,13.73
2017-08-09T05:28:12.566Z,13.83
2017-08-09T05:30:39.209Z,13.33
2017-08-09T05:33:05.835Z,13.53
2017-08-09T05:35:32.475Z,11.93
2017-08-09T05:37:59.098Z,12.00
2017-08-09T05:40:25.739Z,12.40
2017-08-09T05:42:52.357Z,11.00
2017-08-09T05:45:19.009Z,11.93
2017-08-09T05:47:45.643Z,11.03
2017-08-09T05:50:12.276Z,10.90
2017-08-09T05:52:38.928Z,9.90
2017-08-09T05:55:05.583Z,12.20
2017-08-09T05:57:32.197Z,8.67
2017-08-09T05:59:58.839Z,9.77
2017-08-09T06:02:25.502Z,8.90
2017-08-09T06:04:52.127Z,8.10
2017-08-09T06:07:18.755Z,9.10
2017-08-09T06:09:45.396Z,7.20
2017-08-09T06:12:12.026Z,7.10
2017-08-09T06:14:38.647Z,6.87
2017-08-09T06:17:05.267Z,7.23
2017-08-09T06:19:31.901Z,6.63
2017-08-09T06:21:58.876Z,6.77
2017-08-09T06:24:25.507Z,5.53
2017-08-09T06:26:52.163Z,5.57
2017-08-09T06:29:18.795Z,6.83
2017-08-09T06:31:45.447Z,6.17
2017-08-09T06:34:12.043Z,5.27
2017-08-09T06:36:38.678Z,4.53
2017-08-09T06:39:05.302Z,5.03
2017-08-09T06:41:31.946Z,4.13
2017-08-09T06:43:58.580Z,4.60
2017-08-09T06:46:25.171Z,4.80
2017-08-09T06:48:51.883Z,5.17
2017-08-09T06:51:18.527Z,4.80
2017-08-09T06:53:45.148Z,4.40
2017-08-09T06:56:12.787Z,4.87
2017-08-09T06:58:39.409Z,4.07
2017-08-09T07:01:06.032Z,4.20
2017-08-09T07:03:32.659Z,4.77
2017-08-09T07:05:59.257Z,4.83
2017-08-09T07:08:25.907Z,3.80
2017-08-09T07:10:52.537Z,4.10
2017-08-09T07:13:19.172Z,3.90
2017-08-09T07:15:45.779Z,4.70
2017-08-09T07:18:12.411Z,4.50
2017-08-09T07:20:39.030Z,5.40
2017-08-09T07:23:05.654Z,6.17
2017-08-09T07:25:32.300Z,4.50
2017-08-09T07:27:58.931Z,4.57
2017-08-09T07:30:25.566Z,4.30
2017-08-09T07:32:52.227Z,4.00
2017-08-09T07:35:18.886Z,3.83
2017-08-09T07:37:45.511Z,4.67
2017-08-09T07:40:12.175Z,3.33
2017-08-09T07:42:38.787Z,3.17
2017-08-09T07:45:05.411Z,3.93
2017-08-09T07:47:32.036Z,3.83
2017-08-09T07:49:58.650Z,3.50
2017-08-09T07:52:25.261Z,3.10
2017-08-09T07:54:51.855Z,2.73
2017-08-09T07:57:18.506Z,3.43
2017-08-09T07:59:45.109Z,3.10
2017-08-09T08:02:11.745Z,3.00
2017-08-09T08:04:38.388Z,2.93
2017-08-09T08:07:05.046Z,2.80
2017-08-09T08:09:31.655Z,2.93
2017-08-09T08:11:58.292Z,2.07
2017-08-09T08:14:24.918Z,2.80
2017-08-09T08:16:51.523Z,2.83
2017-08-09T08:19:18.131Z,2.40
2017-08-09T08:21:44.780Z,2.70
2017-08-09T08:24:11.388Z,2.97
2017-08-09T08:26:38.018Z,1.77
2017-08-09T08:29:04.651Z,2.20
2017-08-09T08:31:31.282Z,1.93
2017-08-09T08:33:57.936Z,2.27
2017-08-09T08:36:24.550Z,2.03
2017-08-09T08:38:51.207Z,2.50
2017-08-09T08:41:17.836Z,2.13
2017-08-09T08:43:44.447Z,2.00
2017-08-09T08:46:11.071Z,1.70
2017-08-09T08:48:37.696Z,1.87
2017-08-09T08:51:04.320Z,2.67
2017-08-09T08:53:30.938Z,2.47
2017-08-09T08:55:57.578Z,2.23
2017-08-09T08:58:24.191Z,1.50
2017-08-09T09:00:50.830Z,2.13
2017-08-09T09:03:17.438Z,1.87
2017-08-09T09:05:44.067Z,2.60
2017-08-09T09:08:10.681Z,2.00
2017-08-09T09:10:37.291Z,2.03
2017-08-09T09:13:03.919Z,1.70
2017-08-09T09:15:30.560Z,2.47
2017-08-09T09:17:57.172Z,2.10
2017-08-09T09:20:23.798Z,1.50
2017-08-09T09:22:50.403Z,1.90
2017-08-09T09:25:17.995Z,1.80
2017-08-09T09:27:44.611Z,1.30
2017-08-09T09:30:11.572Z,1.10
2017-08-09T09:32:38.175Z,1.67
2017-08-09T09:35:04.803Z,1.47
2017-08-09T09:37:31.446Z,1.77
2017-08-09T09:39:58.081Z,2.23
2017-08-09T09:42:24.703Z,1.57
2017-08-09T09:44:51.331Z,1.53
2017-08-09T09:47:17.940Z,1.60
2017-08-09T09:49:44.553Z,1.50
2017-08-09T09:52:11.195Z,1.30
2017-08-09T09:54:37.816Z,1.40
2017-08-09T09:57:04.440Z,1.20
2017-08-09T09:59:31.047Z,1.10
2017-08-09T10:01:57.659Z,1.00
2017-08-09T10:04:24.298Z,1.20
2017-08-09T10:06:50.939Z,1.50
2017-08-09T10:09:17.590Z,1.30
2017-08-09T10:11:44.198Z,1.20
2017-08-09T10:14:10.839Z,1.30
2017-08-09T10:16:37.472Z,1.60
2017-08-09T10:19:04.104Z,1.30
2017-08-09T10:21:30.731Z,0.90
2017-08-09T10:23:57.363Z,0.90
2017-08-09T10:26:24.000Z,1.20
2017-08-09T10:28:50.636Z,1.30
2017-08-09T10:31:17.258Z,1.60
2017-08-09T10:33:43.883Z,1.70
2017-08-09T10:36:10.523Z,1.40
2017-08-09T10:38:37.143Z,1.30
2017-08-09T10:41:03.769Z,1.37
2017-08-09T10:43:30.387Z,1.93
2017-08-09T10:45:57.012Z,1.33
2017-08-09T10:48:23.637Z,1.47
2017-08-09T10:50:50.239Z,1.33
2017-08-09T10:53:16.898Z,1.63
2017-08-09T10:55:43.532Z,2.10
2017-08-09T10:58:10.154Z,2.70
2017-08-09T11:00:36.778Z,1.50
2017-08-09T11:03:03.423Z,1.43
2017-08-09T11:05:30.040Z,1.60
2017-08-09T11:07:56.655Z,1.40
2017-08-09T11:10:23.285Z,2.37
2017-08-09T11:12:49.905Z,1.40
2017-08-09T11:15:16.542Z,2.37
2017-08-09T11:17:43.168Z,1.77
2017-08-09T11:20:09.819Z,1.60
2017-08-09T11:22:36.463Z,1.20
2017-08-09T11:25:03.107Z,1.83
2017-08-09T11:27:29.746Z,2.20
2017-08-09T11:29:56.363Z,1.60
2017-08-09T11:32:23.008Z,1.70
2017-08-09T11:34:49.643Z,1.47
2017-08-09T11:37:16.274Z,1.77
2017-08-09T11:39:42.894Z,1.47
2017-08-09T11:42:09.524Z,1.70
2017-08-09T11:44:36.460Z,1.43
2017-08-09T11:47:03.106Z,1.40
2017-08-09T11:49:29.705Z,1.47
2017-08-09T11:51:56.320Z,2.07
2017-08-09T11:54:22.971Z,1.60
2017-08-09T11:56:49.598Z,1.60
2017-08-09T11:59:16.216Z,1.87
2017-08-09T12:01:42.834Z,2.20
2017-08-09T12:04:09.491Z,1.73
2017-08-09T12:06:36.119Z,2.13
2017-08-09T12:09:02.735Z,1.70
2017-08-09T12:11:29.354Z,2.30
2017-08-09T12:13:55.990Z,2.00
2017-08-09T12:16:22.618Z,2.30
2017-08-09T12:18:49.235Z,2.20
2017-08-09T12:21:15.882Z,1.57
2017-08-09T12:23:42.518Z,1.60
2017-08-09T12:26:09.140Z,1.70
2017-08-09T12:28:35.786Z,1.80
2017-08-09T12:31:02.404Z,1.70
2017-08-09T12:33:29.042Z,2.20
2017-08-09T12:35:55.667Z,1.77
2017-08-09T12:38:22.283Z,1.80
2017-08-09T12:40:48.924Z,2.20
2017-08-09T12:43:15.575Z,1.60
2017-08-09T12:45:42.195Z,1.90
2017-08-09T12:48:08.831Z,1.70
2017-08-09T12:50:35.448Z,2.23
2017-08-09T12:53:02.089Z,1.50
2017-08-09T12:55:28.764Z,1.97
2017-08-09T12:57:55.414Z,1.67
2017-08-09T13:00:22.031Z,2.27
2017-08-09T13:02:48.652Z,2.10
2017-08-09T13:05:15.287Z,1.73
2017-08-09T13:07:42.297Z,2.60
2017-08-09T13:10:08.940Z,1.93
2017-08-09T13:12:35.550Z,2.03
2017-08-09T13:15:02.203Z,2.20
2017-08-09T13:17:28.848Z,1.97
2017-08-09T13:19:55.455Z,2.43
2017-08-09T13:22:22.081Z,2.00
2017-08-09T13:24:48.729Z,2.40
2017-08-09T13:27:15.342Z,2.20
2017-08-09T13:29:42.336Z,1.97
2017-08-09T13:32:08.957Z,1.90
2017-08-09T13:34:35.595Z,1.93
2017-08-09T13:37:02.217Z,2.50
2017-08-09T13:39:28.840Z,3.00
2017-08-09T13:41:55.482Z,2.40
2017-08-09T13:44:22.110Z,2.53
2017-08-09T13:46:48.747Z,2.30
2017-08-09T13:49:15.370Z,2.60
2017-08-09T13:51:41.978Z,2.30
2017-08-09T13:54:08.639Z,2.17
2017-08-09T13:56:35.252Z,2.20
2017-08-09T13:59:01.909Z,2.20
2017-08-09T14:01:28.562Z,2.03
2017-08-09T14:03:55.178Z,1.87
2017-08-09T14:06:21.795Z,2.10
2017-08-09T14:08:48.435Z,2.40
2017-08-09T14:11:15.056Z,1.80
2017-08-09T14:13:41.678Z,1.90
2017-08-09T14:16:08.319Z,1.80
2017-08-09T14:18:34.929Z,1.70
2017-08-09T14:21:01.556Z,1.10
2017-08-09T14:23:28.175Z,1.00
2017-08-09T14:25:54.818Z,1.40
2017-08-09T14:28:21.442Z,1.33
2017-08-09T14:30:48.079Z,1.20
2017-08-09T14:33:14.691Z,1.40
2017-08-09T14:35:42.132Z,1.30
2017-08-09T14:38:08.744Z,2.20
2017-08-09T14:40:35.379Z,1.53
2017-08-09T14:43:02.049Z,1.63
2017-08-09T14:45:28.689Z,1.70
2017-08-09T14:47:55.335Z,1.93
2017-08-09T14:50:21.959Z,1.53
2017-08-09T14:52:48.603Z,2.07
2017-08-09T14:55:15.214Z,1.93
2017-08-09T14:57:41.841Z,1.77
2017-08-09T15:00:08.495Z,1.73
2017-08-09T15:02:35.107Z,1.70
2017-08-09T15:05:01.735Z,2.10
2017-08-09T15:07:28.385Z,1.73
2017-08-09T15:09:55.034Z,2.33
2017-08-09T15:12:21.631Z,2.10
2017-08-09T15:14:48.261Z,1.67
2017-08-09T15:17:14.894Z,1.60
2017-08-09T15:19:41.507Z,2.27
2017-08-09T15:22:08.126Z,1.60
2017-08-09T15:24:34.748Z,1.60
2017-08-09T15:27:01.383Z,1.63
2017-08-09T15:29:28.020Z,2.00
2017-08-09T15:31:54.627Z,2.10
2017-08-09T15:34:21.388Z,1.93
2017-08-09T15:36:48.016Z,1.57
2017-08-09T15:39:14.633Z,1.60
2017-08-09T15:41:41.268Z,1.93
2017-08-09T15:44:07.887Z,1.80
2017-08-09T15:46:34.544Z,1.90
2017-08-09T15:49:01.138Z,1.90
2017-08-09T15:51:27.752Z,2.07
2017-08-09T15:53:54.388Z,2.23
2017-08-09T15:56:21.035Z,1.30
2017-08-09T15:58:47.667Z,1.70
2017-08-09T16:01:14.282Z,1.90
2017-08-09T16:03:40.917Z,2.20
2017-08-09T16:06:07.530Z,2.10
2017-08-09T16:08:34.167Z,3.40
2017-08-09T16:11:00.814Z,1.50
2017-08-09T16:13:27.449Z,1.93
2017-08-09T16:15:54.083Z,1.50
2017-08-09T16:18:20.708Z,1.90
2017-08-09T16:20:47.367Z,2.37
2017-08-09T16:23:13.988Z,1.70
2017-08-09T16:25:40.621Z,1.77
2017-08-09T16:28:07.256Z,1.93
2017-08-09T16:30:33.898Z,1.90
2017-08-09T16:33:00.524Z,2.00
2017-08-09T16:35:27.166Z,1.90
2017-08-09T16:37:53.796Z,2.20
2017-08-09T16:40:20.416Z,1.73
2017-08-09T16:42:47.060Z,2.03
2017-08-09T16:45:13.696Z,1.93
2017-08-09T16:47:40.318Z,1.90
2017-08-09T16:50:07.823Z,1.57
2017-08-09T16:52:34.563Z,2.27
2017-08-09T16:55:01.180Z,2.00
2017-08-09T16:57:27.793Z,1.90
2017-08-09T16:59:54.475Z,1.80
2017-08-09T17:02:21.083Z,1.97
2017-08-09T17:04:47.695Z,1.60
2017-08-09T17:07:14.315Z,1.70
2017-08-09T17:09:40.927Z,2.13
2017-08-09T17:12:07.563Z,2.20
2017-08-09T17:14:34.188Z,2.13
2017-08-09T17:17:00.795Z,2.10
2017-08-09T17:19:27.445Z,1.77
2017-08-09T17:21:54.056Z,1.70
2017-08-09T17:24:20.671Z,2.10
2017-08-09T17:26:47.281Z,3.13
2017-08-09T17:29:13.905Z,1.80
2017-08-09T17:31:40.555Z,1.73
2017-08-09T17:34:07.178Z,1.80
2017-08-09T17:36:33.798Z,1.90
2017-08-09T17:39:00.425Z,2.30
2017-08-09T17:41:27.087Z,1.70
2017-08-09T17:43:53.715Z,2.27
2017-08-09T17:46:20.327Z,1.80
2017-08-09T17:48:46.983Z,2.43
2017-08-09T17:51:13.605Z,2.60
2017-08-09T17:53:40.261Z,3.13
2017-08-09T17:56:06.888Z,3.40
2017-08-09T17:58:33.516Z,2.30
2017-08-09T18:01:00.196Z,2.20
2017-08-09T18:03:26.854Z,2.33
2017-08-09T18:05:53.506Z,2.77
2017-08-09T18:08:20.137Z,2.03
2017-08-09T18:10:46.755Z,2.20
2017-08-09T18:13:13.376Z,2.67
2017-08-09T18:15:40.019Z,1.63
2017-08-09T18:18:06.658Z,1.53
2017-08-09T18:20:33.289Z,2.17
2017-08-09T18:22:59.923Z,2.03
2017-08-09T18:25:26.547Z,2.03
2017-08-09T18:27:53.225Z,1.70
2017-08-09T18:30:19.855Z,1.70
2017-08-09T18:32:46.521Z,1.80
2017-08-09T18:35:13.154Z,1.53
2017-08-09T18:37:39.759Z,1.90
2017-08-09T18:40:06.389Z,2.70
2017-08-09T18:42:33.040Z,1.70
2017-08-09T18:44:59.652Z,1.70
2017-08-09T18:47:26.276Z,1.53
2017-08-09T18:49:52.902Z,1.23
2017-08-09T18:52:20.502Z,1.50
2017-08-09T18:54:47.185Z,1.87
2017-08-09T18:57:13.798Z,1.50
2017-08-09T18:59:40.444Z,1.80
2017-08-09T19:02:07.095Z,2.23
2017-08-09T19:04:33.738Z,1.90
2017-08-09T19:07:00.383Z,1.53
2017-08-09T19:09:27.005Z,2.17
2017-08-09T19:11:53.632Z,2.20
2017-08-09T19:14:20.269Z,2.40
2017-08-09T19:16:46.903Z,1.83
2017-08-09T19:19:13.543Z,2.20
2017-08-09T19:21:40.170Z,1.50
2017-08-09T19:24:06.837Z,1.80
2017-08-09T19:26:33.493Z,2.77
2017-08-09T19:29:00.110Z,2.67
2017-08-09T19:31:26.785Z,3.73
2017-08-09T19:33:53.425Z,2.37
2017-08-09T19:36:20.042Z,2.27
2017-08-09T19:38:46.730Z,2.50
2017-08-09T19:41:13.351Z,2.20
2017-08-09T19:43:40.016Z,2.50
2017-08-09T19:46:06.659Z,2.87
2017-08-09T19:48:33.338Z,2.40
2017-08-09T19:50:59.952Z,3.27
2017-08-09T19:53:26.638Z,2.83
2017-08-09T19:55:53.271Z,2.40
2017-08-09T19:58:19.883Z,2.40
2017-08-09T20:00:46.508Z,2.37
2017-08-09T20:03:13.146Z,2.40
2017-08-09T20:05:39.793Z,2.73
2017-08-09T20:08:06.422Z,2.43
2017-08-09T20:10:33.043Z,2.50
2017-08-09T20:12:59.681Z,2.63
2017-08-09T20:15:26.299Z,2.90
2017-08-09T20:17:52.978Z,3.17
2017-08-09T20:20:19.622Z,3.30
2017-08-09T20:22:46.267Z,3.00
2017-08-09T20:25:12.887Z,3.40
2017-08-09T20:27:40.071Z,2.73
2017-08-09T20:30:06.714Z,3.20
2017-08-09T20:32:33.359Z,3.57
2017-08-09T20:34:59.986Z,4.77
2017-08-09T20:37:26.611Z,3.50
2017-08-09T20:39:53.238Z,3.40
2017-08-09T20:42:19.887Z,3.73
2017-08-09T20:44:46.523Z,3.30
2017-08-09T20:47:13.134Z,3.43
2017-08-09T20:49:39.791Z,3.40
2017-08-09T20:52:06.439Z,2.87
2017-08-09T20:54:33.059Z,3.13
2017-08-09T20:56:59.696Z,3.40
2017-08-09T20:59:26.333Z,2.60
2017-08-09T21:01:52.968Z,3.27
2017-08-09T21:04:20.127Z,4.10
2017-08-09T21:06:46.784Z,3.17
2017-08-09T21:09:14.207Z,3.37
2017-08-09T21:11:40.830Z,3.53
2017-08-09T21:14:07.480Z,2.50
2017-08-09T21:16:34.098Z,2.77
2017-08-09T21:19:00.750Z,4.23
2017-08-09T21:21:27.379Z,2.93
2017-08-09T21:23:54.028Z,3.63
2017-08-09T21:26:20.642Z,3.70
2017-08-09T21:28:47.251Z,3.40
2017-08-09T21:31:13.895Z,3.20
2017-08-09T21:33:41.129Z,3.60
2017-08-09T21:36:07.759Z,3.70
2017-08-09T21:38:34.407Z,3.23
2017-08-09T21:41:01.035Z,4.40
2017-08-09T21:43:27.682Z,3.33
2017-08-09T21:45:54.339Z,3.67
2017-08-09T21:48:20.967Z,3.60
2017-08-09T21:50:47.614Z,3.83
2017-08-09T21:53:14.234Z,3.47
2017-08-09T21:55:41.704Z,4.10
2017-08-09T21:58:08.354Z,3.60
2017-08-09T22:00:34.963Z,4.30
2017-08-09T22:03:01.597Z,4.13
2017-08-09T22:05:28.220Z,4.10
2017-08-09T22:07:54.907Z,4.20
2017-08-09T22:10:21.532Z,3.70
2017-08-09T22:12:48.136Z,3.77
2017-08-09T22:15:14.773Z,4.20
2017-08-09T22:17:41.379Z,3.50
2017-08-09T22:20:08.027Z,3.40
2017-08-09T22:22:34.639Z,3.93
2017-08-09T22:25:02.043Z,3.70
2017-08-09T22:27:28.707Z,3.10
2017-08-09T22:29:55.324Z,3.80
2017-08-09T22:32:21.960Z,4.27
2017-08-09T22:34:48.575Z,4.87
2017-08-09T22:37:15.202Z,4.30
2017-08-09T22:39:41.843Z,4.37
2017-08-09T22:42:08.478Z,4.40
2017-08-09T22:44:35.897Z,4.63
2017-08-09T22:47:02.517Z,3.47
2017-08-09T22:49:29.165Z,3.73
2017-08-09T22:51:55.788Z,3.40
2017-08-09T22:54:22.519Z,3.77
2017-08-09T22:56:49.134Z,3.20
2017-08-09T22:59:15.759Z,3.80
2017-08-09T23:01:42.403Z,4.00
2017-08-09T23:04:09.024Z,3.97
2017-08-09T23:06:35.655Z,3.93
2017-08-09T23:09:02.278Z,6.40
2017-08-09T23:11:28.909Z,4.60
2017-08-09T23:13:55.564Z,4.53
2017-08-09T23:16:22.179Z,4.77
2017-08-09T23:18:48.810Z,4.33
2017-08-09T23:21:15.443Z,4.23
2017-08-09T23:23:42.104Z,4.27
2017-08-09T23:26:08.709Z,4.30
2017-08-09T23:28:35.320Z,4.57
2017-08-09T23:31:01.955Z,4.80
2017-08-09T23:33:28.580Z,4.47
2017-08-09T23:35:55.222Z,3.70
2017-08-09T23:38:21.830Z,4.43
2017-08-09T23:40:48.451Z,4.40
2017-08-09T23:43:15.199Z,4.63
2017-08-09T23:45:41.842Z,4.90
2017-08-09T23:48:08.469Z,4.23
2017-08-09T23:50:35.096Z,4.73
2017-08-09T23:53:02.357Z,4.50
2017-08-09T23:55:28.986Z,4.37
2017-08-09T23:57:55.614Z,3.87
